createdAt,value
2022-10-05T00:01:28.686Z,74.25
2022-10-05T00:04:01.034Z,74.47
2022-10-05T00:06:29.460Z,74.72
2022-10-05T00:08:56.543Z,74.93
2022-10-05T00:11:23.027Z,73.73
2022-10-05T00:13:49.645Z,73.71
2022-10-05T00:16:19.102Z,74.94
2022-10-05T00:18:49.322Z,72.95
2022-10-05T00:21:18.830Z,72.48
2022-10-05T00:23:45.440Z,72.17
2022-10-05T00:26:16.755Z,71.97
2022-10-05T00:28:43.252Z,71.69
2022-10-05T00:31:21.276Z,72.61
2022-10-05T00:33:48.240Z,72.23
2022-10-05T00:36:15.557Z,72.75
2022-10-05T00:38:42.830Z,72.77
2022-10-05T00:41:11.598Z,72.67
2022-10-05T00:43:37.988Z,73.13
2022-10-05T00:46:14.356Z,72.83
2022-10-05T00:49:08.263Z,72.81
2022-10-05T00:51:37.082Z,72.60
2022-10-05T00:54:07.062Z,72.52
2022-10-05T00:56:47.457Z,73.15
2022-10-05T00:59:40.422Z,72.93
2022-10-05T01:02:12.975Z,72.67
2022-10-05T01:04:47.173Z,72.82
2022-10-05T01:07:37.757Z,73.80
2022-10-05T01:10:15.828Z,74.50
2022-10-05T01:12:49.035Z,73.08
2022-10-05T01:15:29.370Z,72.05
2022-10-05T01:18:08.807Z,73.30
2022-10-05T01:20:57.055Z,72.69
2022-10-05T01:24:06.207Z,73.22
2022-10-05T01:26:53.009Z,73.75
2022-10-05T01:29:23.830Z,73.85
2022-10-05T01:31:59.309Z,73.97
2022-10-05T01:34:44.709Z,72.70
2022-10-05T01:37:23.428Z,72.73
2022-10-05T01:40:08.018Z,72.88
2022-10-05T01:42:40.737Z,72.80
2022-10-05T01:45:31.600Z,73.34
2022-10-05T01:48:14.884Z,72.90
2022-10-05T01:50:51.316Z,72.17
2022-10-05T01:53:38.019Z,71.50
2022-10-05T01:56:06.575Z,71.96
2022-10-05T01:58:59.278Z,72.26
2022-10-05T02:01:57.262Z,71.33
2022-10-05T02:05:00.325Z,71.23
2022-10-05T02:07:24.421Z,71.53
2022-10-05T02:09:56.342Z,73.29
2022-10-05T02:12:25.509Z,73.04
2022-10-05T02:14:57.368Z,73.39
2022-10-05T02:17:27.442Z,73.96
2022-10-05T02:20:04.550Z,74.24
2022-10-05T02:22:37.549Z,73.22
2022-10-05T02:25:10.829Z,73.42
2022-10-05T02:27:44.059Z,74.06
2022-10-05T02:30:16.249Z,73.75
2022-10-05T02:33:06.465Z,74.70
2022-10-05T02:35:33.052Z,74.37
2022-10-05T02:38:14.716Z,74.06
2022-10-05T02:41:07.693Z,74.31
2022-10-05T02:43:44.350Z,74.37
2022-10-05T02:46:18.541Z,74.22
2022-10-05T02:49:07.059Z,73.56
2022-10-05T02:51:51.323Z,72.94
2022-10-05T02:54:24.176Z,72.28
2022-10-05T02:57:09.509Z,74.26
2022-10-05T02:59:47.439Z,73.54
2022-10-05T03:02:20.391Z,74.10
2022-10-05T03:05:00.577Z,73.28
2022-10-05T03:07:35.200Z,73.54
2022-10-05T03:10:10.468Z,73.41
2022-10-05T03:12:48.874Z,72.45
2022-10-05T03:15:48.813Z,71.71
2022-10-05T03:18:48.502Z,71.19
2022-10-05T03:21:33.767Z,72.86
2022-10-05T03:24:17.434Z,73.42
2022-10-05T03:27:06.000Z,71.59
2022-10-05T03:29:41.098Z,72.50
2022-10-05T03:32:26.535Z,71.73
2022-10-05T03:35:31.148Z,71.63
2022-10-05T03:38:16.174Z,71.27
2022-10-05T03:41:13.245Z,72.30
2022-10-05T03:44:00.208Z,73.25
2022-10-05T03:46:39.687Z,73.56
2022-10-05T03:49:24.812Z,73.15
2022-10-05T03:52:15.763Z,73.19
2022-10-05T03:54:45.890Z,73.35
2022-10-05T03:57:23.990Z,74.32
2022-10-05T03:59:59.322Z,73.73
2022-10-05T04:02:31.877Z,73.36
2022-10-05T04:05:03.726Z,73.32
2022-10-05T04:07:46.822Z,73.81
2022-10-05T04:10:25.413Z,75.23
2022-10-05T04:13:01.640Z,75.51
2022-10-05T04:15:35.285Z,75.27
2022-10-05T04:18:40.656Z,74.18
2022-10-05T04:21:23.747Z,74.73
2022-10-05T04:24:00.477Z,74.74
2022-10-05T04:26:50.983Z,74.28
2022-10-05T04:29:44.597Z,73.85
2022-10-05T04:32:31.276Z,74.05
2022-10-05T04:35:25.500Z,73.03
2022-10-05T04:38:11.078Z,73.02
2022-10-05T04:40:38.182Z,73.52
2022-10-05T04:43:36.002Z,73.22
2022-10-05T04:46:29.183Z,72.55
2022-10-05T04:49:07.788Z,72.17
2022-10-05T04:51:51.310Z,71.63
2022-10-05T04:54:56.286Z,72.19
2022-10-05T04:57:29.318Z,72.15
2022-10-05T05:00:09.625Z,71.31
2022-10-05T05:02:56.414Z,71.71
2022-10-05T05:05:34.807Z,71.89
2022-10-05T05:08:04.591Z,72.21
2022-10-05T05:11:13.641Z,73.15
2022-10-05T05:14:00.695Z,72.34
2022-10-05T05:16:38.194Z,72.21
2022-10-05T05:19:16.171Z,75.42
2022-10-05T05:22:27.946Z,72.69
2022-10-05T05:25:22.055Z,73.51
2022-10-05T05:28:01.338Z,72.92
2022-10-05T05:30:47.972Z,72.65
2022-10-05T05:33:31.201Z,72.09
2022-10-05T05:36:22.190Z,73.23
2022-10-05T05:39:08.918Z,73.42
2022-10-05T05:41:39.343Z,73.30
2022-10-05T05:44:26.000Z,73.42
2022-10-05T05:47:16.835Z,73.20
2022-10-05T05:50:30.324Z,75.42
2022-10-05T05:53:22.778Z,73.47
2022-10-05T05:56:04.514Z,74.91
2022-10-05T05:58:35.814Z,75.20
2022-10-05T06:01:30.617Z,74.57
2022-10-05T06:04:02.769Z,75.42
2022-10-05T06:06:36.335Z,75.19
2022-10-05T06:09:16.730Z,73.94
2022-10-05T06:11:57.084Z,74.44
2022-10-05T06:14:45.415Z,73.31
2022-10-05T06:17:12.029Z,74.21
2022-10-05T06:19:39.541Z,73.25
2022-10-05T06:22:17.320Z,72.85
2022-10-05T06:24:59.743Z,73.03
2022-10-05T06:27:38.808Z,72.43
2022-10-05T06:30:14.950Z,73.53
2022-10-05T06:33:12.390Z,73.30
2022-10-05T06:35:46.421Z,73.77
2022-10-05T06:38:34.987Z,73.11
2022-10-05T06:41:28.895Z,72.87
2022-10-05T06:44:01.107Z,72.38
2022-10-05T06:47:07.608Z,72.49
2022-10-05T06:50:09.117Z,72.49
2022-10-05T06:52:54.051Z,72.30
2022-10-05T06:55:30.786Z,72.53
2022-10-05T06:58:27.774Z,72.85
2022-10-05T07:01:06.443Z,72.98
2022-10-05T07:03:52.248Z,71.04
2022-10-05T07:06:37.445Z,70.69
2022-10-05T07:09:22.880Z,71.11
2022-10-05T07:12:03.763Z,71.22
2022-10-05T07:14:34.397Z,72.02
2022-10-05T07:17:12.553Z,71.52
2022-10-05T07:19:52.320Z,71.03
2022-10-05T07:22:41.512Z,70.97
2022-10-05T07:25:17.028Z,70.98
2022-10-05T07:28:11.417Z,71.58
2022-10-05T07:30:46.318Z,72.26
2022-10-05T07:33:21.932Z,74.05
2022-10-05T07:36:30.762Z,73.81
2022-10-05T07:39:12.603Z,73.90
2022-10-05T07:41:51.185Z,73.84
2022-10-05T07:44:29.658Z,74.10
2022-10-05T07:47:04.444Z,74.14
2022-10-05T07:50:03.284Z,73.37
2022-10-05T07:52:36.897Z,71.41
2022-10-05T07:55:27.360Z,71.31
2022-10-05T07:58:19.355Z,70.57
2022-10-05T08:00:56.623Z,69.89
2022-10-05T08:03:30.490Z,70.47
2022-10-05T08:05:58.588Z,69.99
2022-10-05T08:08:37.112Z,70.66
2022-10-05T08:11:38.488Z,71.23
2022-10-05T08:14:14.736Z,70.76
2022-10-05T08:16:42.251Z,71.35
2022-10-05T08:19:19.074Z,69.09
2022-10-05T08:21:52.573Z,69.99
2022-10-05T08:24:46.054Z,68.99
2022-10-05T08:27:15.398Z,67.95
2022-10-05T08:29:58.543Z,68.34
2022-10-05T08:32:29.364Z,69.56
2022-10-05T08:35:13.841Z,68.81
2022-10-05T08:37:42.494Z,68.42
2022-10-05T08:40:33.795Z,69.62
2022-10-05T08:43:37.937Z,67.47
2022-10-05T08:46:31.136Z,66.86
2022-10-05T08:49:12.690Z,66.97
2022-10-05T08:51:42.173Z,66.91
2022-10-05T08:54:30.473Z,67.96
2022-10-05T08:57:22.215Z,68.20
2022-10-05T09:00:10.882Z,67.17
2022-10-05T09:02:56.066Z,67.12
2022-10-05T09:05:50.461Z,66.94
2022-10-05T09:08:29.760Z,67.69
2022-10-05T09:11:10.067Z,64.92
2022-10-05T09:13:47.044Z,65.35
2022-10-05T09:16:24.290Z,65.68
2022-10-05T09:19:32.885Z,65.36
2022-10-05T09:22:38.343Z,65.99
2022-10-05T09:25:32.585Z,64.76
2022-10-05T09:28:05.715Z,65.27
2022-10-05T09:30:52.874Z,65.03
2022-10-05T09:33:38.641Z,65.22
2022-10-05T09:36:16.278Z,63.72
2022-10-05T09:39:13.007Z,64.35
2022-10-05T09:42:13.428Z,63.59
2022-10-05T09:45:35.813Z,62.74
2022-10-05T09:48:22.086Z,62.10
2022-10-05T09:51:07.883Z,63.83
2022-10-05T09:54:12.225Z,63.79
2022-10-05T09:56:43.833Z,63.29
2022-10-05T09:59:42.173Z,62.36
2022-10-05T10:02:20.762Z,63.51
2022-10-05T10:05:16.777Z,63.25
2022-10-05T10:08:11.952Z,62.95
2022-10-05T10:11:00.454Z,61.63
2022-10-05T10:13:53.287Z,61.61
2022-10-05T10:16:41.429Z,60.03
2022-10-05T10:19:24.098Z,61.77
2022-10-05T10:22:09.398Z,58.93
2022-10-05T10:24:48.285Z,60.52
2022-10-05T10:27:42.291Z,59.87
2022-10-05T10:30:40.778Z,60.85
2022-10-05T10:33:25.666Z,61.00
2022-10-05T10:36:06.922Z,60.67
2022-10-05T10:38:40.547Z,60.51
2022-10-05T10:41:37.670Z,60.51
2022-10-05T10:44:22.614Z,58.26
2022-10-05T10:47:14.001Z,58.71
2022-10-05T10:50:19.437Z,59.48
2022-10-05T10:53:40.172Z,58.12
2022-10-05T10:56:34.169Z,57.85
2022-10-05T10:59:27.851Z,56.99
2022-10-05T11:02:37.548Z,58.11
2022-10-05T11:05:26.084Z,55.64
2022-10-05T11:08:22.885Z,56.54
2022-10-05T11:11:08.175Z,56.36
2022-10-05T11:13:37.603Z,55.30
2022-10-05T11:16:15.893Z,57.61
2022-10-05T11:19:16.572Z,57.76
2022-10-05T11:22:05.360Z,58.52
2022-10-05T11:24:54.805Z,57.75
2022-10-05T11:27:47.053Z,56.80
2022-10-05T11:31:02.002Z,56.75
2022-10-05T11:33:34.858Z,57.69
2022-10-05T11:36:18.807Z,57.81
2022-10-05T11:39:17.660Z,57.34
2022-10-05T11:42:05.775Z,58.42
2022-10-05T11:44:35.537Z,57.62
2022-10-05T11:47:10.711Z,56.36
2022-10-05T11:49:44.781Z,56.87
2022-10-05T11:52:21.524Z,56.49
2022-10-05T11:55:19.400Z,56.93
2022-10-05T11:57:53.359Z,56.84
2022-10-05T12:00:22.952Z,58.03
2022-10-05T12:02:58.549Z,57.51
2022-10-05T12:05:41.479Z,56.01
2022-10-05T12:08:26.087Z,56.04
2022-10-05T12:11:11.410Z,56.32
2022-10-05T12:13:41.067Z,56.68
2022-10-05T12:16:16.842Z,56.37
2022-10-05T12:18:52.488Z,57.34
2022-10-05T12:21:25.050Z,55.88
2022-10-05T12:24:26.886Z,54.97
2022-10-05T12:27:04.196Z,55.22
2022-10-05T12:29:39.343Z,54.13
2022-10-05T12:32:22.533Z,55.11
2022-10-05T12:35:36.247Z,53.84
2022-10-05T12:38:28.993Z,53.94
2022-10-05T12:41:05.785Z,55.71
2022-10-05T12:43:34.867Z,54.08
2022-10-05T12:46:09.094Z,55.28
2022-10-05T12:48:44.812Z,52.75
2022-10-05T12:51:25.177Z,53.06
2022-10-05T12:53:54.351Z,54.04
2022-10-05T12:56:28.378Z,54.30
2022-10-05T12:58:54.688Z,53.15
2022-10-05T13:01:41.840Z,52.84
2022-10-05T13:04:17.798Z,54.13
2022-10-05T13:07:19.836Z,53.23
2022-10-05T13:09:58.678Z,54.52
2022-10-05T13:12:42.842Z,50.60
2022-10-05T13:15:22.680Z,51.80
2022-10-05T13:18:10.372Z,53.02
2022-10-05T13:20:45.588Z,52.45
2022-10-05T13:23:36.434Z,51.71
2022-10-05T13:26:13.307Z,49.72
2022-10-05T13:29:00.375Z,48.79
2022-10-05T13:31:40.878Z,48.78
2022-10-05T13:34:22.911Z,51.02
2022-10-05T13:37:16.055Z,49.33
2022-10-05T13:40:05.821Z,49.49
2022-10-05T13:42:45.793Z,49.29
2022-10-05T13:45:20.669Z,48.84
2022-10-05T13:47:59.693Z,50.43
2022-10-05T13:50:34.553Z,47.89
2022-10-05T13:53:18.303Z,48.05
2022-10-05T13:55:55.238Z,48.37
2022-10-05T13:58:25.401Z,48.70
2022-10-05T14:00:57.648Z,46.80
2022-10-05T14:03:25.104Z,48.59
2022-10-05T14:05:57.384Z,46.80
2022-10-05T14:08:35.151Z,48.07
2022-10-05T14:11:21.687Z,47.26
2022-10-05T14:13:49.045Z,47.64
2022-10-05T14:16:26.128Z,48.44
2022-10-05T14:19:04.783Z,50.33
2022-10-05T14:21:32.887Z,51.43
2022-10-05T14:24:32.251Z,51.24
2022-10-05T14:27:27.361Z,49.72
2022-10-05T14:30:17.704Z,51.64
2022-10-05T14:32:59.439Z,49.64
2022-10-05T14:35:31.264Z,49.74
2022-10-05T14:38:01.522Z,50.76
2022-10-05T14:40:30.972Z,51.02
2022-10-05T14:42:59.976Z,51.45
2022-10-05T14:45:29.937Z,51.75
2022-10-05T14:48:10.497Z,52.00
2022-10-05T14:50:55.970Z,51.47
2022-10-05T14:53:24.925Z,51.09
2022-10-05T14:56:08.886Z,51.11
2022-10-05T14:58:56.230Z,50.65
2022-10-05T15:01:31.470Z,51.60
2022-10-05T15:04:20.464Z,50.84
2022-10-05T15:06:51.135Z,50.58
2022-10-05T15:09:41.913Z,50.34
2022-10-05T15:12:08.929Z,50.38
2022-10-05T15:14:42.001Z,50.79
2022-10-05T15:17:34.670Z,50.33
2022-10-05T15:20:26.214Z,51.58
2022-10-05T15:23:26.248Z,50.90
2022-10-05T15:26:01.820Z,51.61
2022-10-05T15:28:34.596Z,52.74
2022-10-05T15:31:13.857Z,51.97
2022-10-05T15:33:53.598Z,52.05
2022-10-05T15:36:36.807Z,52.44
2022-10-05T15:39:34.640Z,52.86
2022-10-05T15:42:03.943Z,53.74
2022-10-05T15:44:52.171Z,53.42
2022-10-05T15:47:43.736Z,53.69
2022-10-05T15:50:18.856Z,54.65
2022-10-05T15:52:50.680Z,55.82
2022-10-05T15:55:30.059Z,56.23
2022-10-05T15:58:14.957Z,57.23
2022-10-05T16:00:57.886Z,58.19
2022-10-05T16:03:48.418Z,58.42
2022-10-05T16:06:55.551Z,59.18
2022-10-05T16:09:37.108Z,59.69
2022-10-05T16:12:19.034Z,60.02
2022-10-05T16:14:56.944Z,59.94
2022-10-05T16:17:36.616Z,59.90
2022-10-05T16:20:15.236Z,60.46
2022-10-05T16:23:01.967Z,62.01
2022-10-05T16:25:46.987Z,61.89
2022-10-05T16:28:16.632Z,61.97
2022-10-05T16:30:55.155Z,61.97
2022-10-05T16:33:30.188Z,62.09
2022-10-05T16:36:07.322Z,62.11
2022-10-05T16:41:20.101Z,63.16
2022-10-05T16:44:04.727Z,63.71
2022-10-05T16:46:45.961Z,63.37
2022-10-05T16:49:35.518Z,63.14
2022-10-05T16:52:06.553Z,63.71
2022-10-05T16:54:43.080Z,63.91
2022-10-05T16:57:18.219Z,64.03
2022-10-05T17:00:03.601Z,64.64
2022-10-05T17:02:54.361Z,64.62
2022-10-05T17:05:32.842Z,66.95
2022-10-05T17:08:15.419Z,66.06
2022-10-05T17:10:59.958Z,65.61
2022-10-05T17:13:50.446Z,65.44
2022-10-05T17:16:29.184Z,65.82
2022-10-05T17:19:12.756Z,65.59
2022-10-05T17:21:44.379Z,65.57
2022-10-05T17:24:36.850Z,65.68
2022-10-05T17:27:17.840Z,65.70
2022-10-05T17:29:49.813Z,64.17
2022-10-05T17:32:16.248Z,64.03
2022-10-05T17:35:01.130Z,63.33
2022-10-05T17:37:35.438Z,62.52
2022-10-05T17:40:31.275Z,61.66
2022-10-05T17:43:01.074Z,61.70
2022-10-05T17:45:33.534Z,61.64
2022-10-05T17:48:05.930Z,62.64
2022-10-05T17:51:07.467Z,62.06
2022-10-05T17:53:52.245Z,61.61
2022-10-05T17:56:20.199Z,61.17
2022-10-05T17:58:54.494Z,60.86
2022-10-05T18:01:34.356Z,60.02
2022-10-05T18:04:13.172Z,59.71
2022-10-05T18:06:47.976Z,59.47
2022-10-05T18:09:16.884Z,59.80
2022-10-05T18:11:45.152Z,59.68
2022-10-05T18:14:19.048Z,60.17
2022-10-05T18:17:03.511Z,60.98
2022-10-05T18:19:31.381Z,60.64
2022-10-05T18:22:27.625Z,61.38
2022-10-05T18:25:03.802Z,60.88
2022-10-05T18:27:34.190Z,60.68
2022-10-05T18:30:18.116Z,60.23
2022-10-05T18:33:04.289Z,60.96
2022-10-05T18:35:56.523Z,60.38
2022-10-05T18:38:51.195Z,60.90
2022-10-05T18:41:29.477Z,61.27
2022-10-05T18:44:14.262Z,60.46
2022-10-05T18:47:01.867Z,60.36
2022-10-05T18:49:47.248Z,60.36
2022-10-05T18:52:39.067Z,60.06
2022-10-05T18:55:17.432Z,60.44
2022-10-05T18:58:13.373Z,61.58
2022-10-05T19:00:58.418Z,60.99
2022-10-05T19:03:40.455Z,60.85
2022-10-05T19:06:25.563Z,61.25
2022-10-05T19:09:08.586Z,60.55
2022-10-05T19:11:52.451Z,60.11
2022-10-05T19:14:36.856Z,60.36
2022-10-05T19:17:03.754Z,60.29
2022-10-05T19:19:43.782Z,60.68
2022-10-05T19:22:28.588Z,60.92
2022-10-05T19:25:02.181Z,61.96
2022-10-05T19:27:34.564Z,61.93
2022-10-05T19:30:14.610Z,62.06
2022-10-05T19:33:08.846Z,62.14
2022-10-05T19:35:42.301Z,61.44
2022-10-05T19:38:23.723Z,61.74
2022-10-05T19:41:13.488Z,61.92
2022-10-05T19:44:04.540Z,61.39
2022-10-05T19:47:10.638Z,61.77
2022-10-05T19:49:57.020Z,62.07
2022-10-05T19:52:49.004Z,61.37
2022-10-05T19:55:26.310Z,62.54
2022-10-05T19:58:01.186Z,62.23
2022-10-05T20:00:31.474Z,61.67
2022-10-05T20:03:19.686Z,62.26
2022-10-05T20:05:47.479Z,62.18
2022-10-05T20:08:19.487Z,62.38
2022-10-05T20:11:13.307Z,62.52
2022-10-05T20:13:41.802Z,62.53
2022-10-05T20:16:45.374Z,62.59
2022-10-05T20:19:47.391Z,62.54
2022-10-05T20:22:33.443Z,62.73
2022-10-05T20:25:06.224Z,63.62
2022-10-05T20:27:46.455Z,63.54
2022-10-05T20:30:18.413Z,63.47
2022-10-05T20:32:52.740Z,63.30
2022-10-05T20:35:22.349Z,62.75
2022-10-05T20:37:49.959Z,63.92
2022-10-05T20:40:18.668Z,63.87
2022-10-05T20:42:45.437Z,63.60
2022-10-05T20:45:13.162Z,63.86
2022-10-05T20:47:40.397Z,64.11
2022-10-05T20:50:09.074Z,64.01
2022-10-05T20:52:37.372Z,63.96
2022-10-05T20:55:05.291Z,63.90
2022-10-05T20:57:32.421Z,64.29
2022-10-05T20:59:58.913Z,64.16
2022-10-05T21:02:25.445Z,64.67
2022-10-05T21:04:52.380Z,64.83
2022-10-05T21:07:23.248Z,65.60
2022-10-05T21:09:50.967Z,66.43
2022-10-05T21:12:17.483Z,66.21
2022-10-05T21:14:44.044Z,66.08
2022-10-05T21:17:11.968Z,65.34
2022-10-05T21:19:39.342Z,65.33
2022-10-05T21:22:07.469Z,65.98
2022-10-05T21:24:35.857Z,65.29
2022-10-05T21:27:02.787Z,65.42
2022-10-05T21:29:29.805Z,65.71
2022-10-05T21:31:56.642Z,65.36
2022-10-05T21:34:23.696Z,65.55
2022-10-05T21:36:50.247Z,66.39
2022-10-05T21:39:17.014Z,66.46
2022-10-05T21:41:43.483Z,66.07
2022-10-05T21:44:10.110Z,66.38
2022-10-05T21:46:37.643Z,67.08
2022-10-05T21:49:06.379Z,67.62
2022-10-05T21:51:33.951Z,66.94
2022-10-05T21:54:03.649Z,66.81
2022-10-05T21:56:40.769Z,66.50
2022-10-05T21:59:09.497Z,66.68
2022-10-05T22:01:36.608Z,66.94
2022-10-05T22:04:04.119Z,66.60
2022-10-05T22:06:31.270Z,66.48
2022-10-05T22:08:59.477Z,66.21
2022-10-05T22:11:26.445Z,65.99
2022-10-05T22:13:53.241Z,65.99
2022-10-05T22:16:21.881Z,66.16
2022-10-05T22:18:48.919Z,66.07
2022-10-05T22:21:15.961Z,66.33
2022-10-05T22:23:44.995Z,66.70
2022-10-05T22:26:13.931Z,66.79
2022-10-05T22:28:42.332Z,66.49
2022-10-05T22:31:09.569Z,66.50
2022-10-05T22:33:37.112Z,66.43
2022-10-05T22:36:04.661Z,66.65
2022-10-05T22:38:31.591Z,66.46
2022-10-05T22:40:58.480Z,66.52
2022-10-05T22:43:26.978Z,66.75
2022-10-05T22:45:54.258Z,66.63
2022-10-05T22:48:20.895Z,66.74
2022-10-05T22:50:47.481Z,66.68
2022-10-05T22:53:14.257Z,66.46
2022-10-05T22:55:40.959Z,67.00
2022-10-05T22:58:07.649Z,67.22
2022-10-05T23:00:56.556Z,67.96
2022-10-05T23:03:21.305Z,67.43
2022-10-05T23:05:47.828Z,68.20
2022-10-05T23:08:14.448Z,67.59
2022-10-05T23:10:40.980Z,67.57
2022-10-05T23:13:08.670Z,67.60
2022-10-05T23:15:35.788Z,67.83
2022-10-05T23:18:02.362Z,67.75
2022-10-05T23:20:29.075Z,68.17
2022-10-05T23:22:55.747Z,67.91
2022-10-05T23:25:22.353Z,67.40
2022-10-05T23:27:49.226Z,67.17
2022-10-05T23:30:15.721Z,67.27
2022-10-05T23:32:43.658Z,67.24
2022-10-05T23:35:12.257Z,67.62
2022-10-05T23:37:43.611Z,67.54
2022-10-05T23:40:14.109Z,67.19
2022-10-05T23:42:41.114Z,67.01
2022-10-05T23:45:11.443Z,67.09
2022-10-05T23:47:38.936Z,66.91
2022-10-05T23:50:06.948Z,66.83
2022-10-05T23:52:34.495Z,66.97
2022-10-05T23:55:02.173Z,67.06
2022-10-05T23:57:28.746Z,67.11
2022-10-05T23:59:56.304Z,66.79
